createdAt,value
2022-08-10T00:08:29.400Z,0.80
2022-08-10T00:18:34.616Z,1.00
2022-08-10T00:28:38.908Z,0.60
2022-08-10T00:38:40.584Z,0.70
2022-08-10T00:48:42.208Z,0.80
2022-08-10T00:58:43.974Z,1.40
2022-08-10T01:09:08.462Z,0.80
2022-08-10T01:19:47.361Z,0.85
2022-08-10T01:30:08.038Z,0.70
2022-08-10T01:40:13.457Z,0.80
2022-08-10T01:50:28.054Z,0.90
2022-08-10T02:00:31.105Z,0.77
2022-08-10T02:10:33.425Z,1.02
2022-08-10T02:20:43.195Z,5.60
2022-08-10T02:30:45.483Z,6.32
2022-08-10T02:45:15.100Z,2.20
2022-08-10T02:51:20.634Z,4.50
2022-08-10T03:01:44.663Z,5.68
2022-08-10T03:12:36.019Z,7.72
2022-08-10T03:22:08.608Z,4.15
2022-08-10T03:32:10.934Z,4.50
2022-08-10T03:42:12.898Z,5.63
2022-08-10T03:52:15.816Z,5.00
2022-08-10T04:02:45.387Z,5.15
2022-08-10T04:12:39.162Z,5.53
2022-08-10T04:22:41.643Z,5.88
2022-08-10T04:32:44.011Z,4.30
2022-08-10T04:42:46.844Z,6.00
2022-08-10T04:52:48.439Z,6.88
2022-08-10T05:02:50.739Z,5.20
2022-08-10T05:12:52.592Z,6.30
2022-08-10T05:22:54.306Z,5.63
2022-08-10T05:33:00.125Z,4.70
2022-08-10T05:43:05.458Z,6.25
2022-08-10T05:54:02.909Z,6.70
2022-08-10T06:03:33.941Z,4.97
2022-08-10T06:14:13.239Z,4.90
2022-08-10T06:24:17.833Z,5.22
2022-08-10T06:34:35.646Z,5.65
2022-08-10T06:44:40.610Z,4.10
2022-08-10T06:54:42.502Z,2.75
2022-08-10T07:05:00.376Z,2.40
2022-08-10T07:15:03.346Z,3.45
2022-08-10T07:25:06.880Z,2.25
2022-08-10T07:35:11.801Z,5.85
2022-08-10T07:45:13.571Z,1.93
2022-08-10T07:55:19.877Z,1.67
2022-08-10T08:05:58.715Z,2.55
2022-08-10T08:16:17.220Z,1.27
2022-08-10T08:26:23.320Z,1.73
2022-08-10T08:36:25.425Z,3.00
2022-08-10T08:46:44.642Z,2.13
2022-08-10T08:57:49.398Z,1.42
2022-08-10T09:08:14.219Z,1.30
2022-08-10T09:18:31.489Z,2.50
2022-08-10T09:28:38.212Z,1.45
2022-08-10T09:39:03.627Z,0.82
2022-08-10T09:49:54.385Z,1.25
2022-08-10T10:00:02.147Z,3.97
2022-08-10T10:10:06.525Z,1.35
2022-08-10T10:20:45.104Z,1.70
2022-08-10T10:31:16.362Z,1.25
2022-08-10T10:42:03.345Z,1.20
2022-08-10T10:52:04.518Z,1.20
2022-08-10T11:02:24.694Z,1.73
2022-08-10T11:12:47.765Z,1.33
2022-08-10T11:23:18.353Z,1.38
2022-08-10T11:33:30.714Z,1.17
2022-08-10T11:43:39.355Z,1.85
2022-08-10T11:53:44.913Z,2.28
2022-08-10T12:03:46.654Z,2.10
2022-08-10T12:14:19.741Z,1.10
2022-08-10T12:24:33.845Z,1.35
2022-08-10T12:34:48.631Z,1.30
2022-08-10T12:45:01.861Z,1.30
2022-08-10T12:55:05.123Z,1.42
2022-08-10T13:05:10.982Z,2.58
2022-08-10T13:15:45.023Z,1.60
2022-08-10T13:25:48.472Z,1.17
2022-08-10T13:35:50.229Z,1.45
2022-08-10T13:45:59.773Z,1.10
2022-08-10T13:56:01.312Z,0.95
2022-08-10T14:06:05.278Z,1.63
2022-08-10T14:16:08.021Z,1.23
2022-08-10T14:26:10.556Z,1.35
2022-08-10T14:36:24.673Z,1.38
2022-08-10T14:46:27.984Z,1.48
2022-08-10T14:56:34.141Z,1.60
2022-08-10T15:06:52.210Z,1.73
2022-08-10T15:16:56.929Z,1.35
2022-08-10T15:26:59.563Z,1.70
2022-08-10T15:37:40.702Z,1.85
2022-08-10T15:47:46.174Z,1.80
2022-08-10T15:58:04.948Z,3.28
2022-08-10T16:08:08.849Z,2.30
2022-08-10T16:18:13.441Z,2.13
2022-08-10T16:28:19.974Z,1.30
2022-08-10T16:38:25.737Z,1.63
2022-08-10T16:48:50.063Z,1.08
2022-08-10T16:58:55.399Z,1.50
2022-08-10T17:08:59.709Z,1.50
2022-08-10T17:19:02.553Z,1.63
2022-08-10T17:29:57.140Z,1.98
2022-08-10T17:39:58.135Z,2.83
2022-08-10T17:50:00.542Z,2.65
2022-08-10T18:00:04.136Z,1.98
2022-08-10T18:10:09.204Z,1.90
2022-08-10T18:20:11.599Z,2.53
2022-08-10T18:30:14.562Z,2.20
2022-08-10T18:40:17.981Z,2.10
2022-08-10T18:50:25.086Z,2.05
2022-08-10T19:01:08.993Z,1.90
2022-08-10T19:11:32.378Z,1.67
2022-08-10T19:21:39.536Z,2.83
2022-08-10T19:32:01.845Z,1.30
2022-08-10T19:42:11.513Z,1.55
2022-08-10T19:52:31.958Z,1.50
2022-08-10T20:02:37.116Z,2.25
2022-08-10T20:12:52.517Z,1.88
2022-08-10T20:23:17.551Z,1.40
2022-08-10T20:33:33.427Z,1.37
2022-08-10T20:43:42.011Z,1.30
2022-08-10T20:53:56.481Z,1.35
2022-08-10T21:04:38.983Z,1.77
2022-08-10T21:14:52.307Z,1.45
2022-08-10T21:24:56.941Z,1.58
2022-08-10T21:35:02.025Z,1.33
2022-08-10T21:56:25.057Z,1.30
2022-08-10T22:06:52.115Z,1.60
2022-08-10T22:18:00.792Z,1.50
2022-08-10T22:28:02.169Z,1.65
2022-08-10T22:38:56.572Z,1.70
2022-08-10T22:49:00.038Z,1.33
2022-08-10T22:59:01.737Z,1.55
2022-08-10T23:09:04.349Z,1.67
2022-08-10T23:19:14.937Z,1.95
2022-08-10T23:29:16.514Z,1.40
2022-08-10T23:39:26.017Z,1.50
2022-08-10T23:49:36.701Z,1.65
2022-08-10T23:59:38.329Z,1.52
